Time,TemperatureF,DewpointF,PressureIn,WindDirection,WindDirectionDegrees,WindSpeedMPH,WindSpeedGustMPH,Humidity,HourlyPrecipIn,Conditions,Clouds,dailyrainin,SoftwareType,DateUTC
2013-06-06 00:02:00,81.0,-99.9,29.77,SE,132,16.0,17.0,-999,-99.99,,,-99.99,,2013-06-06 05:02:00,
2013-06-06 00:12:00,81.0,-99.9,29.77,SE,137,16.0,18.0,-999,-99.99,,,-99.99,,2013-06-06 05:12:00,
2013-06-06 00:23:00,81.0,-99.9,29.76,SE,135,16.0,19.0,-999,-99.99,,,-99.99,,2013-06-06 05:23:00,
2013-06-06 00:32:00,81.0,-99.9,29.76,SE,139,17.0,18.0,-999,-99.99,,,-99.99,,2013-06-06 05:32:00,
2013-06-06 00:42:00,81.0,-99.9,29.76,SE,136,17.0,19.0,-999,-99.99,,,-99.99,,2013-06-06 05:42:00,
2013-06-06 00:52:00,81.0,-99.9,29.76,SE,142,17.0,19.0,-999,-99.99,,,-99.99,,2013-06-06 05:52:00,
2013-06-06 01:02:00,81.0,-99.9,29.75,SE,141,16.0,19.0,-999,-99.99,,,-99.99,,2013-06-06 06:02:00,
2013-06-06 01:12:00,81.0,-99.9,29.75,SE,145,17.0,21.0,-999,-99.99,,,-99.99,,2013-06-06 06:12:00,
2013-06-06 01:22:00,81.0,-99.9,29.75,SE,145,19.0,21.0,-999,-99.99,,,-99.99,,2013-06-06 06:22:00,
2013-06-06 01:33:00,81.0,-99.9,29.74,SE,139,18.0,22.0,-999,-99.99,,,-99.99,,2013-06-06 06:33:00,
2013-06-06 01:42:00,81.0,-99.9,29.74,SE,145,18.0,20.0,-999,-99.99,,,-99.99,,2013-06-06 06:42:00,
2013-06-06 01:52:00,81.0,-99.9,29.74,SSE,152,18.0,21.0,-999,-99.99,,,-99.99,,2013-06-06 06:52:00,
2013-06-06 02:02:00,81.0,-99.9,29.74,SSE,151,17.0,20.0,-999,-99.99,,,-99.99,,2013-06-06 07:02:00,
2013-06-06 02:12:00,81.0,-99.9,29.75,SSE,158,16.0,19.0,-999,-99.99,,,-99.99,,2013-06-06 07:12:00,
2013-06-06 02:22:00,81.0,-99.9,29.74,SSE,148,17.0,20.0,-999,-99.99,,,-99.99,,2013-06-06 07:22:00,
2013-06-06 02:33:00,81.0,-99.9,29.74,SSE,160,18.0,20.0,-999,-99.99,,,-99.99,,2013-06-06 07:33:00,
2013-06-06 02:42:00,81.0,-99.9,29.74,SSE,151,16.0,19.0,-999,-99.99,,,-99.99,,2013-06-06 07:42:00,
2013-06-06 02:52:00,81.0,-99.9,29.73,SSE,151,17.0,21.0,-999,-99.99,,,-99.99,,2013-06-06 07:52:00,
2013-06-06 03:02:00,81.0,-99.9,29.73,SSE,157,17.0,20.0,-999,-99.99,,,-99.99,,2013-06-06 08:02:00,
2013-06-06 03:12:00,81.0,-99.9,29.72,SSE,160,17.0,19.0,-999,-99.99,,,-99.99,,2013-06-06 08:12:00,
2013-06-06 03:22:00,81.0,-99.9,29.73,SSE,163,15.0,18.0,-999,-99.99,,,-99.99,,2013-06-06 08:22:00,
2013-06-06 03:32:00,81.0,-99.9,29.73,South,172,15.0,18.0,-999,-99.99,,,-99.99,,2013-06-06 08:32:00,
2013-06-06 03:42:00,81.0,-99.9,29.73,SSE,164,15.0,17.0,-999,-99.99,,,-99.99,,2013-06-06 08:42:00,
2013-06-06 03:52:00,81.0,-99.9,29.73,South,176,15.0,17.0,-999,-99.99,,,-99.99,,2013-06-06 08:52:00,
2013-06-06 04:02:00,81.0,-99.9,29.74,South,170,14.0,15.0,-999,-99.99,,,-99.99,,2013-06-06 09:02:00,
2013-06-06 04:12:00,81.0,-99.9,29.74,South,178,13.0,16.0,-999,-99.99,,,-99.99,,2013-06-06 09:12:00,
2013-06-06 04:22:00,81.0,-99.9,29.75,South,171,11.0,14.0,-999,-99.99,,,-99.99,,2013-06-06 09:22:00,
2013-06-06 04:33:00,81.0,-99.9,29.75,SSE,168,10.0,12.0,-999,-99.99,,,-99.99,,2013-06-06 09:33:00,
2013-06-06 04:43:00,81.0,-99.9,29.75,SSE,168,9.0,11.0,-999,-99.99,,,-99.99,,2013-06-06 09:43:00,
2013-06-06 04:53:00,81.0,-99.9,29.75,South,186,7.0,10.0,-999,-99.99,,,-99.99,,2013-06-06 09:53:00,
2013-06-06 05:03:00,81.0,-99.9,29.75,South,178,9.0,10.0,-999,-99.99,,,-99.99,,2013-06-06 10:03:00,
2013-06-06 05:12:00,81.0,-99.9,29.75,South,178,7.0,9.0,-999,-99.99,,,-99.99,,2013-06-06 10:12:00,
2013-06-06 05:23:00,81.0,-99.9,29.75,South,176,8.0,9.0,-999,-99.99,,,-99.99,,2013-06-06 10:23:00,
2013-06-06 05:33:00,81.0,-99.9,29.75,South,179,8.0,9.0,-999,-99.99,,,-99.99,,2013-06-06 10:33:00,
2013-06-06 05:42:00,81.0,-99.9,29.75,SSE,155,8.0,10.0,-999,-99.99,,,-99.99,,2013-06-06 10:42:00,
2013-06-06 05:53:00,81.0,-99.9,29.76,South,180,6.0,8.0,-999,-99.99,,,-99.99,,2013-06-06 10:53:00,
2013-06-06 06:03:00,81.0,-99.9,29.76,South,190,5.0,8.0,-999,-99.99,,,-99.99,,2013-06-06 11:03:00,
2013-06-06 06:12:00,80.0,-99.9,29.76,South,171,8.0,9.0,-999,-99.99,,,-99.99,,2013-06-06 11:12:00,
2013-06-06 06:23:00,81.0,-99.9,29.76,SSW,211,5.0,7.0,-999,-99.99,,,-99.99,,2013-06-06 11:23:00,
2013-06-06 06:32:00,80.0,-99.9,29.76,SW,221,3.0,4.0,-999,-99.99,,,-99.99,,2013-06-06 11:32:00,
2013-06-06 06:42:00,80.0,-99.9,29.76,SW,216,2.0,4.0,-999,-99.99,,,-99.99,,2013-06-06 11:42:00,
2013-06-06 06:52:00,79.0,-99.9,29.77,SW,229,2.0,3.0,-999,-99.99,,,-99.99,,2013-06-06 11:52:00,
2013-06-06 07:03:00,79.0,-99.9,29.77,WSW,252,5.0,6.0,-999,-99.99,,,-99.99,,2013-06-06 12:03:00,
2013-06-06 07:13:00,79.0,-99.9,29.77,WSW,247,4.0,6.0,-999,-99.99,,,-99.99,,2013-06-06 12:13:00,
2013-06-06 07:23:00,79.0,-99.9,29.77,West,265,3.0,4.0,-999,-99.99,,,-99.99,,2013-06-06 12:23:00,
2013-06-06 07:33:00,78.0,-99.9,29.77,West,276,4.0,4.0,-999,-99.99,,,-99.99,,2013-06-06 12:33:00,
2013-06-06 07:43:00,79.0,-99.9,29.77,WNW,283,4.0,5.0,-999,-99.99,,,-99.99,,2013-06-06 12:43:00,
2013-06-06 07:53:00,79.0,-99.9,29.77,West,277,4.0,4.0,-999,-99.99,,,-99.99,,2013-06-06 12:53:00,
2013-06-06 08:03:00,79.0,-99.9,29.77,WNW,288,4.0,5.0,-999,-99.99,,,-99.99,,2013-06-06 13:03:00,
2013-06-06 08:13:00,79.0,-99.9,29.78,WNW,303,5.0,6.0,-999,-99.99,,,-99.99,,2013-06-06 13:13:00,
2013-06-06 08:23:00,80.0,-99.9,29.78,WNW,295,5.0,7.0,-999,-99.99,,,-99.99,,2013-06-06 13:23:00,
2013-06-06 08:33:00,80.0,-99.9,29.79,NW,308,6.0,7.0,-999,-99.99,,,-99.99,,2013-06-06 13:33:00,
2013-06-06 08:43:00,80.0,-99.9,29.79,NW,311,6.0,7.0,-999,-99.99,,,-99.99,,2013-06-06 13:43:00,
2013-06-06 08:53:00,80.0,-99.9,29.79,NNW,337,5.0,7.0,-999,-99.99,,,-99.99,,2013-06-06 13:53:00,
2013-06-06 09:03:00,80.0,-99.9,29.80,WNW,294,5.0,7.0,-999,-99.99,,,-99.99,,2013-06-06 14:03:00,
2013-06-06 09:13:00,81.0,-99.9,29.80,NW,321,6.0,8.0,-999,-99.99,,,-99.99,,2013-06-06 14:13:00,
2013-06-06 09:23:00,81.0,-99.9,29.80,NNW,345,3.0,5.0,-999,-99.99,,,-99.99,,2013-06-06 14:23:00,
2013-06-06 09:33:00,81.0,-99.9,29.81,NNW,335,7.0,8.0,-999,-99.99,,,-99.99,,2013-06-06 14:33:00,
2013-06-06 09:43:00,81.0,-99.9,29.81,North,1,7.0,9.0,-999,-99.99,,,-99.99,,2013-06-06 14:43:00,
2013-06-06 09:53:00,81.0,-99.9,29.82,North,9,5.0,7.0,-999,-99.99,,,-99.99,,2013-06-06 14:53:00,
2013-06-06 10:03:00,82.0,-99.9,29.82,NNE,25,5.0,7.0,-999,-99.99,,,-99.99,,2013-06-06 15:03:00,
2013-06-06 10:13:00,82.0,-99.9,29.82,NNE,30,5.0,7.0,-999,-99.99,,,-99.99,,2013-06-06 15:13:00,
2013-06-06 10:23:00,82.0,-99.9,29.82,North,5,6.0,9.0,-999,-99.99,,,-99.99,,2013-06-06 15:23:00,
2013-06-06 10:33:00,82.0,-99.9,29.82,North,9,6.0,8.0,-999,-99.99,,,-99.99,,2013-06-06 15:33:00,
2013-06-06 10:43:00,82.0,-99.9,29.82,NNE,16,7.0,9.0,-999,-99.99,,,-99.99,,2013-06-06 15:43:00,
2013-06-06 10:53:00,82.0,-99.9,29.82,NNE,17,7.0,10.0,-999,-99.99,,,-99.99,,2013-06-06 15:53:00,
2013-06-06 11:03:00,82.0,-99.9,29.82,NNE,32,8.0,9.0,-999,-99.99,,,-99.99,,2013-06-06 16:03:00,
2013-06-06 11:13:00,82.0,-99.9,29.82,NE,38,6.0,8.0,-999,-99.99,,,-99.99,,2013-06-06 16:13:00,
2013-06-06 11:23:00,82.0,-99.9,29.82,NE,54,6.0,8.0,-999,-99.99,,,-99.99,,2013-06-06 16:23:00,
2013-06-06 11:34:00,82.0,-99.9,29.82,NE,42,6.0,7.0,-999,-99.99,,,-99.99,,2013-06-06 16:34:00,
2013-06-06 11:44:00,82.0,-99.9,29.82,NE,53,5.0,7.0,-999,-99.99,,,-99.99,,2013-06-06 16:44:00,
2013-06-06 11:53:00,82.0,-99.9,29.82,NE,56,6.0,8.0,-999,-99.99,,,-99.99,,2013-06-06 16:53:00,
2013-06-06 12:03:00,82.0,-99.9,29.82,ENE,67,7.0,8.0,-999,-99.99,,,-99.99,,2013-06-06 17:03:00,
2013-06-06 12:13:00,82.0,-99.9,29.82,ENE,57,7.0,8.0,-999,-99.99,,,-99.99,,2013-06-06 17:13:00,
2013-06-06 12:23:00,82.0,-99.9,29.82,ENE,61,7.0,9.0,-999,-99.99,,,-99.99,,2013-06-06 17:23:00,
2013-06-06 12:33:00,82.0,-99.9,29.83,NE,47,9.0,10.0,-999,-99.99,,,-99.99,,2013-06-06 17:33:00,
2013-06-06 12:43:00,82.0,-99.9,29.83,ENE,65,9.0,10.0,-999,-99.99,,,-99.99,,2013-06-06 17:43:00,
2013-06-06 12:53:00,83.0,-99.9,29.82,ENE,70,9.0,10.0,-999,-99.99,,,-99.99,,2013-06-06 17:53:00,
2013-06-06 13:03:00,82.0,-99.9,29.82,ENE,69,9.0,11.0,-999,-99.99,,,-99.99,,2013-06-06 18:03:00,
2013-06-06 13:13:00,82.0,-99.9,29.82,ENE,68,9.0,9.0,-999,-99.99,,,-99.99,,2013-06-06 18:13:00,
2013-06-06 13:23:00,82.0,-99.9,29.82,ENE,76,8.0,9.0,-999,-99.99,,,-99.99,,2013-06-06 18:23:00,
2013-06-06 13:33:00,83.0,-99.9,29.82,ENE,69,8.0,9.0,-999,-99.99,,,-99.99,,2013-06-06 18:33:00,
2013-06-06 13:43:00,83.0,-99.9,29.82,ENE,70,8.0,9.0,-999,-99.99,,,-99.99,,2013-06-06 18:43:00,
2013-06-06 13:53:00,83.0,-99.9,29.82,ENE,72,8.0,9.0,-999,-99.99,,,-99.99,,2013-06-06 18:53:00,
2013-06-06 14:03:00,83.0,-99.9,29.81,East,80,9.0,11.0,-999,-99.99,,,-99.99,,2013-06-06 19:03:00,
2013-06-06 14:13:00,83.0,-99.9,29.81,ENE,68,9.0,10.0,-999,-99.99,,,-99.99,,2013-06-06 19:13:00,
2013-06-06 14:23:00,82.0,-99.9,29.80,East,85,9.0,10.0,-999,-99.99,,,-99.99,,2013-06-06 19:23:00,
2013-06-06 14:34:00,82.0,-99.9,29.80,East,86,10.0,12.0,-999,-99.99,,,-99.99,,2013-06-06 19:34:00,
2013-06-06 14:43:00,83.0,-99.9,29.80,East,93,12.0,13.0,-999,-99.99,,,-99.99,,2013-06-06 19:43:00,
2013-06-06 14:53:00,83.0,-99.9,29.79,East,86,12.0,14.0,-999,-99.99,,,-99.99,,2013-06-06 19:53:00,
2013-06-06 15:03:00,82.0,-99.9,29.79,East,89,10.0,13.0,-999,-99.99,,,-99.99,,2013-06-06 20:03:00,
2013-06-06 15:13:00,83.0,-99.9,29.79,East,88,10.0,12.0,-999,-99.99,,,-99.99,,2013-06-06 20:13:00,
2013-06-06 15:23:00,83.0,-99.9,29.79,East,94,11.0,13.0,-999,-99.99,,,-99.99,,2013-06-06 20:23:00,
2013-06-06 15:33:00,83.0,-99.9,29.79,East,92,10.0,12.0,-999,-99.99,,,-99.99,,2013-06-06 20:33:00,
2013-06-06 15:43:00,83.0,-99.9,29.79,East,93,10.0,11.0,-999,-99.99,,,-99.99,,2013-06-06 20:43:00,
2013-06-06 15:53:00,83.0,-99.9,29.78,East,92,11.0,13.0,-999,-99.99,,,-99.99,,2013-06-06 20:53:00,
2013-06-06 16:03:00,83.0,-99.9,29.78,ESE,103,11.0,13.0,-999,-99.99,,,-99.99,,2013-06-06 21:03:00,
2013-06-06 16:13:00,83.0,-99.9,29.78,ESE,105,11.0,12.0,-999,-99.99,,,-99.99,,2013-06-06 21:13:00,
2013-06-06 16:23:00,82.0,-99.9,29.77,ESE,113,11.0,13.0,-999,-99.99,,,-99.99,,2013-06-06 21:23:00,
2013-06-06 16:33:00,83.0,-99.9,29.77,SE,124,13.0,14.0,-999,-99.99,,,-99.99,,2013-06-06 21:33:00,
2013-06-06 16:44:00,82.0,-99.9,29.76,SE,124,13.0,14.0,-999,-99.99,,,-99.99,,2013-06-06 21:44:00,
2013-06-06 16:53:00,83.0,-99.9,29.76,ESE,120,13.0,15.0,-999,-99.99,,,-99.99,,2013-06-06 21:53:00,
2013-06-06 17:03:00,83.0,-99.9,29.75,SE,124,14.0,15.0,-999,-99.99,,,-99.99,,2013-06-06 22:03:00,
2013-06-06 17:13:00,83.0,-99.9,29.75,SE,131,14.0,15.0,-999,-99.99,,,-99.99,,2013-06-06 22:13:00,
2013-06-06 17:23:00,83.0,-99.9,29.74,SE,126,15.0,16.0,-999,-99.99,,,-99.99,,2013-06-06 22:23:00,
2013-06-06 17:33:00,83.0,-99.9,29.74,SE,131,15.0,17.0,-999,-99.99,,,-99.99,,2013-06-06 22:33:00,
2013-06-06 17:43:00,83.0,-99.9,29.73,SE,124,15.0,17.0,-999,-99.99,,,-99.99,,2013-06-06 22:43:00,
2013-06-06 17:53:00,83.0,-99.9,29.73,SE,131,13.0,16.0,-999,-99.99,,,-99.99,,2013-06-06 22:53:00,
2013-06-06 18:03:00,83.0,-99.9,29.74,SE,129,11.0,14.0,-999,-99.99,,,-99.99,,2013-06-06 23:03:00,
2013-06-06 18:13:00,83.0,-99.9,29.74,SE,138,13.0,14.0,-999,-99.99,,,-99.99,,2013-06-06 23:13:00,
2013-06-06 18:22:00,83.0,-99.9,29.73,SE,145,13.0,14.0,-999,-99.99,,,-99.99,,2013-06-06 23:22:00,
2013-06-06 18:33:00,83.0,-99.9,29.73,SE,136,13.0,14.0,-999,-99.99,,,-99.99,,2013-06-06 23:33:00,
2013-06-06 18:43:00,83.0,-99.9,29.73,SE,139,13.0,15.0,-999,-99.99,,,-99.99,,2013-06-06 23:43:00,
2013-06-06 18:52:00,83.0,-99.9,29.73,SE,136,13.0,14.0,-999,-99.99,,,-99.99,,2013-06-06 23:52:00,
2013-06-06 19:02:00,83.0,-99.9,29.73,SE,132,13.0,15.0,-999,-99.99,,,-99.99,,2013-06-07 00:02:00,
2013-06-06 19:13:00,83.0,-99.9,29.73,SE,132,13.0,15.0,-999,-99.99,,,-99.99,,2013-06-07 00:13:00,
2013-06-06 19:22:00,83.0,-99.9,29.73,SE,130,14.0,16.0,-999,-99.99,,,-99.99,,2013-06-07 00:22:00,
2013-06-06 19:32:00,83.0,-99.9,29.73,SE,134,15.0,17.0,-999,-99.99,,,-99.99,,2013-06-07 00:32:00,
2013-06-06 19:43:00,83.0,-99.9,29.73,SE,135,15.0,17.0,-999,-99.99,,,-99.99,,2013-06-07 00:43:00,
2013-06-06 19:52:00,83.0,-99.9,29.73,SE,139,14.0,16.0,-999,-99.99,,,-99.99,,2013-06-07 00:52:00,
2013-06-06 20:03:00,83.0,-99.9,29.73,SE,131,11.0,14.0,-999,-99.99,,,-99.99,,2013-06-07 01:03:00,
2013-06-06 20:12:00,83.0,-99.9,29.74,SE,135,12.0,13.0,-999,-99.99,,,-99.99,,2013-06-07 01:12:00,
2013-06-06 20:22:00,83.0,-99.9,29.73,SE,136,13.0,14.0,-999,-99.99,,,-99.99,,2013-06-07 01:22:00,
2013-06-06 20:33:00,83.0,-99.9,29.73,SE,135,15.0,16.0,-999,-99.99,,,-99.99,,2013-06-07 01:33:00,
2013-06-06 20:42:00,83.0,-99.9,29.73,SE,133,14.0,16.0,-999,-99.99,,,-99.99,,2013-06-07 01:42:00,
2013-06-06 20:53:00,83.0,-99.9,29.74,SE,133,15.0,16.0,-999,-99.99,,,-99.99,,2013-06-07 01:53:00,
2013-06-06 21:02:00,83.0,-99.9,29.74,SE,131,14.0,16.0,-999,-99.99,,,-99.99,,2013-06-07 02:02:00,
2013-06-06 21:12:00,83.0,-99.9,29.75,SE,130,14.0,16.0,-999,-99.99,,,-99.99,,2013-06-07 02:12:00,
2013-06-06 21:22:00,83.0,-99.9,29.75,SE,126,14.0,16.0,-999,-99.99,,,-99.99,,2013-06-07 02:22:00,
2013-06-06 21:32:00,83.0,-99.9,29.76,SE,124,14.0,16.0,-999,-99.99,,,-99.99,,2013-06-07 02:32:00,
2013-06-06 21:42:00,83.0,-99.9,29.76,SE,130,15.0,16.0,-999,-99.99,,,-99.99,,2013-06-07 02:42:00,
2013-06-06 21:52:00,83.0,-99.9,29.76,SE,136,14.0,17.0,-999,-99.99,,,-99.99,,2013-06-07 02:52:00,
2013-06-06 22:02:00,83.0,-99.9,29.76,SE,128,15.0,17.0,-999,-99.99,,,-99.99,,2013-06-07 03:02:00,
2013-06-06 22:12:00,83.0,-99.9,29.76,SE,126,14.0,15.0,-999,-99.99,,,-99.99,,2013-06-07 03:12:00,
2013-06-06 22:22:00,83.0,-99.9,29.77,SE,127,15.0,16.0,-999,-99.99,,,-99.99,,2013-06-07 03:22:00,
2013-06-06 22:33:00,83.0,-99.9,29.78,SE,126,14.0,16.0,-999,-99.99,,,-99.99,,2013-06-07 03:33:00,
2013-06-06 22:44:00,83.0,-99.9,29.78,SE,125,14.0,15.0,-999,-99.99,,,-99.99,,2013-06-07 03:44:00,
2013-06-06 22:53:00,83.0,-99.9,29.79,SE,124,13.0,14.0,-999,-99.99,,,-99.99,,2013-06-07 03:53:00,
2013-06-06 23:03:00,83.0,-99.9,29.80,ESE,123,13.0,14.0,-999,-99.99,,,-99.99,,2013-06-07 04:03:00,
2013-06-06 23:13:00,83.0,-99.9,29.80,SE,131,13.0,14.0,-999,-99.99,,,-99.99,,2013-06-07 04:13:00,
2013-06-06 23:23:00,83.0,-99.9,29.80,ESE,122,15.0,15.0,-999,-99.99,,,-99.99,,2013-06-07 04:23:00,
2013-06-06 23:33:00,83.0,-99.9,29.81,ESE,121,14.0,15.0,-999,-99.99,,,-99.99,,2013-06-07 04:33:00,
2013-06-06 23:42:00,83.0,-99.9,29.81,ESE,121,14.0,15.0,-999,-99.99,,,-99.99,,2013-06-07 04:42:00,
2013-06-06 23:54:00,83.0,-99.9,29.81,SE,124,13.0,15.0,-999,-99.99,,,-99.99,,2013-06-07 04:54:00,